الصفحة الرئيسية
METAR-TAF:

METAR-TAF

مطار :

مطار سيلفيو بيتيروسي الدولي

أسونسيون, باراغواي

دائرة عرض: 25-16S, خط طول: 057-38W, ارتفاع: 101 متر

مراقبة الطقس الحالي

تاريخ ووقت الإصدار 38 دقيقة قبل الساعة 09:00UTC
ريح 4 عقدة من الجنوب/الجنوب الشرقي
درجة الحرارة 20°درجة مئوية
الرطوبة 88%
ضغط 1014 hPa
الرؤية 10 كم أو أكثر
الغيوم لا تقل 1500 م ولا وجود لمزنة ركامية السحاب الأسود

METAR: SGAS 170900Z 15004KT CAVOK 20/18 Q1014

زمن: 05:38 (09:38 UTC)

توقعات

تاريخ ووقت الإصدار 6ساعات و 18 دقيقة قبل الساعة 03:20UTC
التوقعات صالحة من17 الساعة 06 UTC إلى 18 الساعة 06 UTC
ريح 8 عقدة من الجنوب/الجنوب الغربي
الرؤية 10 كم أو أكثر
الغيوم لا تقل 1500 م ولا وجود لمزنة ركامية السحاب الأسود
أصبح
من 17 الساعة 13 UTC إلى 17 الساعة 15 UTC
الرؤية 10 كم أو أكثر
غيوم مفككة على ارتفاع 2700 قدم
أصبح
من 17 الساعة 17 UTC إلى 17 الساعة 20 UTC
الرؤية 10 كم أو أكثر
غيوم متفرقة على ارتفاع 3300 قدم

TAF: SGAS 170320Z 1706/1806 21008KT CAVOK TX33/1719Z TN22/1709Z BECMG 1713/1715 9999 BKN027 BECMG 1717/1720 9999 SCT033

أرصاد الطقس والتوقعات من أكثر من 4000 مطار (تقارير الطقس للمطار METAR والتنبؤ بالطقس بالمطارTAF).

المحطات المتاحة هي النقط الصفراء والحمراء على الخريطة.

حرك المؤشر فوق النقطة لمعرفة اسم المحطة.

ثم انقر لمعرفة أرصاد وتوقعات الطقس.

لتغيير الخارطة: اضغط على الأزرار الخضراء مع رمز الصليب الأسود للتكبير. على الزر الأخضر مع شرطة للتصغير، أو على الأسهم الخضراء للخرائط المجاورة.


METAR-TAF: